Time;durP1;ratioP1;P1;durP2;ratioP2;P2;SDS_P1;SDS_P2;PMS_P1;PMS_P2;Temp;Humidity;BMP_temperature;BMP_pressure;BME280_temperature;BME280_humidity;BME280_pressure;Samples;Min_cycle;Max_cycle;Signal;HPM_P1;HPM_P2
2024/03/08 00:02:17;;;;;;;5.83;2.97;;;;;;;-0.23;100.00;99410.28;5021184;28;20044;-66
2024/03/08 00:04:44;;;;;;;7.80;3.00;;;;;;;-0.26;100.00;99406.06;5037727;28;20048;-68
2024/03/08 00:07:10;;;;;;;7.63;2.97;;;;;;;-0.26;100.00;99400.84;5037999;28;20052;-66
2024/03/08 00:09:36;;;;;;;3.53;2.80;;;;;;;-0.27;100.00;99404.41;5037524;28;20048;-66
2024/03/08 00:12:02;;;;;;;4.83;2.70;;;;;;;-0.27;100.00;99393.97;5054081;28;20391;-66
2024/03/08 00:14:27;;;;;;;4.17;2.80;;;;;;;-0.28;100.00;99399.28;5037669;28;20119;-66
2024/03/08 00:16:54;;;;;;;5.23;3.10;;;;;;;-0.30;100.00;99394.16;5055095;28;20083;-66
2024/03/08 00:19:20;;;;;;;2.70;2.40;;;;;;;-0.33;100.00;99389.13;5037621;28;20041;-67
2024/03/08 00:21:45;;;;;;;4.47;2.53;;;;;;;-0.32;100.00;99385.59;5020900;28;20048;-67
2024/03/08 00:24:12;;;;;;;5.80;2.70;;;;;;;-0.38;100.00;99380.75;5053976;28;20049;-67
2024/03/08 00:26:37;;;;;;;4.53;3.23;;;;;;;-0.42;100.00;99378.44;5020803;28;20056;-66
2024/03/08 00:29:03;;;;;;;5.20;3.63;;;;;;;-0.47;100.00;99375.25;5037417;28;20119;-66
2024/03/08 00:31:30;;;;;;;5.10;3.37;;;;;;;-0.47;100.00;99377.88;5037081;28;20045;-66
2024/03/08 00:33:57;;;;;;;6.37;3.77;;;;;;;-0.54;100.00;99368.78;5037469;28;20052;-66
2024/03/08 00:36:23;;;;;;;6.93;3.60;;;;;;;-0.60;100.00;99375.19;5037307;28;20460;-66
2024/03/08 00:38:48;;;;;;;5.67;3.43;;;;;;;-0.67;100.00;99373.06;5037090;28;20091;-65
2024/03/08 00:41:14;;;;;;;8.00;4.47;;;;;;;-0.75;100.00;99368.31;5052353;28;20380;-67
2024/03/08 00:43:40;;;;;;;5.83;3.67;;;;;;;-0.77;100.00;99372.78;5053873;28;20057;-67
2024/03/08 00:46:06;;;;;;;5.17;3.30;;;;;;;-0.80;100.00;99370.34;5020327;28;20044;-67
2024/03/08 00:48:32;;;;;;;6.57;3.10;;;;;;;-0.85;100.00;99358.56;5036723;28;20049;-67
2024/03/08 00:50:57;;;;;;;6.50;3.63;;;;;;;-0.89;100.00;99355.28;5036725;28;20052;-67
2024/03/08 00:53:23;;;;;;;5.17;3.00;;;;;;;-0.89;100.00;99363.09;5036820;28;20045;-67
2024/03/08 00:55:49;;;;;;;5.40;3.23;;;;;;;-0.91;100.00;99359.78;5020478;28;20053;-67
2024/03/08 00:58:15;;;;;;;4.23;3.10;;;;;;;-0.89;100.00;99359.69;5020238;28;20080;-67
2024/03/08 01:00:41;;;;;;;6.63;3.03;;;;;;;-0.95;100.00;99358.28;5035979;28;20472;-67
2024/03/08 01:03:07;;;;;;;8.00;3.50;;;;;;;-0.96;100.00;99347.94;5052041;28;20087;-66
2024/03/08 01:05:33;;;;;;;10.60;4.80;;;;;;;-0.99;100.00;99348.13;5034200;28;20056;-66
2024/03/08 01:07:59;;;;;;;6.00;3.50;;;;;;;-0.99;100.00;99346.38;5034322;28;20045;-66
2024/03/08 01:10:25;;;;;;;6.93;3.53;;;;;;;-0.95;100.00;99347.84;5017968;28;20039;-66
2024/03/08 01:12:50;;;;;;;5.93;3.57;;;;;;;-0.94;100.00;99339.09;5034505;28;20033;-66
2024/03/08 01:15:16;;;;;;;4.97;2.97;;;;;;;-0.94;100.00;99335.66;5050697;28;20037;-66
2024/03/08 01:17:43;;;;;;;4.37;2.90;;;;;;;-0.94;100.00;99326.06;5018458;28;20033;-66
2024/03/08 01:20:12;;;;;;;3.97;2.97;;;;;;;-0.95;100.00;99324.38;5035026;28;20055;-67
2024/03/08 01:22:39;;;;;;;5.30;2.97;;;;;;;-0.90;100.00;99322.34;5050780;28;20037;-66
2024/03/08 01:25:05;;;;;;;4.87;2.80;;;;;;;-0.87;100.00;99306.50;5050566;28;20056;-66
2024/03/08 01:27:31;;;;;;;4.30;3.00;;;;;;;-0.80;100.00;99320.00;5017334;28;20573;-66
2024/03/08 01:29:59;;;;;;;3.33;2.40;;;;;;;-0.75;100.00;99321.38;5017444;28;20045;-66
2024/03/08 01:32:25;;;;;;;7.17;3.57;;;;;;;-0.69;100.00;99326.22;5034636;28;20136;-67
2024/03/08 01:34:50;;;;;;;3.60;2.80;;;;;;;-0.66;100.00;99325.22;5034064;28;20072;-66
2024/03/08 01:37:16;;;;;;;3.63;2.73;;;;;;;-0.61;100.00;99326.59;5018095;28;20045;-68
2024/03/08 01:39:42;;;;;;;3.20;2.70;;;;;;;-0.59;100.00;99316.91;5019232;28;20051;-68
2024/03/08 01:42:08;;;;;;;4.33;2.80;;;;;;;-0.52;100.00;99315.56;5019428;28;20044;-68
2024/03/08 01:44:34;;;;;;;4.23;3.03;;;;;;;-0.53;100.00;99316.50;5019825;28;20387;-69
2024/03/08 01:47:01;;;;;;;3.87;2.70;;;;;;;-0.52;100.00;99315.56;5052632;28;20103;-65
2024/03/08 01:49:27;;;;;;;5.03;2.70;;;;;;;-0.51;100.00;99319.03;5052736;28;20055;-65
2024/03/08 01:51:56;;;;;;;6.07;3.27;;;;;;;-0.52;100.00;99315.56;5018485;28;20443;-66
2024/03/08 01:54:23;;;;;;;5.53;2.97;;;;;;;-0.60;100.00;99317.81;5035675;28;20041;-66
2024/03/08 01:56:49;;;;;;;4.53;2.93;;;;;;;-0.69;100.00;99307.97;5035665;28;20630;-66
2024/03/08 01:59:15;;;;;;;4.83;2.93;;;;;;;-0.72;100.00;99310.75;5019339;28;20037;-65
2024/03/08 02:01:43;;;;;;;5.03;3.50;;;;;;;-0.72;100.00;99302.94;5053076;28;20045;-66
2024/03/08 02:04:09;;;;;;;3.83;3.00;;;;;;;-0.82;100.00;99296.66;5035653;28;20045;-67
2024/03/08 02:06:34;;;;;;;7.33;3.50;;;;;;;-0.88;100.00;99296.19;5035737;28;20051;-66
2024/03/08 02:09:00;;;;;;;4.83;2.87;;;;;;;-0.88;100.00;99286.59;5052127;28;20505;-66
2024/03/08 02:11:26;;;;;;;4.83;3.20;;;;;;;-0.78;100.00;99292.91;5052295;28;20067;-66
2024/03/08 02:13:53;;;;;;;3.93;2.83;;;;;;;-0.76;100.00;99301.47;5051775;28;20041;-66
2024/03/08 02:16:22;;;;;;;4.00;2.70;;;;;;;-0.63;100.00;99301.56;5068668;28;20140;-66
2024/03/08 02:18:48;;;;;;;3.67;2.50;;;;;;;-0.65;100.00;99303.41;5051960;28;20075;-66
2024/03/08 02:21:18;;;;;;;4.33;2.87;;;;;;;-0.61;100.00;99300.50;5035509;28;20052;-66
2024/03/08 02:23:44;;;;;;;4.30;2.93;;;;;;;-0.71;100.00;99299.41;5052045;28;20037;-66
2024/03/08 02:26:09;;;;;;;4.27;2.50;;;;;;;-0.74;100.00;99293.56;5018607;28;20064;-68
2024/03/08 02:28:36;;;;;;;4.93;2.80;;;;;;;-0.76;100.00;99285.84;5034372;28;20372;-67
2024/03/08 02:31:02;;;;;;;5.77;3.30;;;;;;;-0.93;100.00;99273.00;5018296;28;20037;-68
2024/03/08 02:33:28;;;;;;;3.97;2.87;;;;;;;-0.96;100.00;99267.16;5034882;28;20043;-67
2024/03/08 02:35:55;;;;;;;3.87;2.93;;;;;;;-1.00;100.00;99268.28;5018064;28;20057;-67
2024/03/08 02:38:22;;;;;;;4.50;3.10;;;;;;;-1.14;100.00;99269.13;5034985;28;20498;-67
2024/03/08 02:40:50;;;;;;;6.10;2.87;;;;;;;-1.18;100.00;99278.06;5017967;28;20501;-67
2024/03/08 02:43:19;;;;;;;5.13;3.00;;;;;;;-1.25;100.00;99276.78;5035141;28;20044;-67
2024/03/08 02:45:45;;;;;;;4.93;2.77;;;;;;;-1.33;100.00;99272.94;5035010;28;20052;-67
2024/03/08 02:48:13;;;;;;;4.00;2.70;;;;;;;-1.41;100.00;99273.41;5034546;28;20044;-67
2024/03/08 02:50:40;;;;;;;4.93;2.97;;;;;;;-1.49;100.00;99269.59;5034519;28;20114;-67
2024/03/08 02:53:06;;;;;;;4.43;2.83;;;;;;;-1.54;100.00;99272.47;5018187;28;20471;-67
2024/03/08 02:55:35;;;;;;;4.40;2.80;;;;;;;-1.62;100.00;99266.88;5018065;28;20201;-67
2024/03/08 02:58:04;;;;;;;4.80;3.30;;;;;;;-1.60;100.00;99259.84;5035037;28;20123;-67
2024/03/08 03:00:30;;;;;;;4.03;2.87;;;;;;;-1.69;100.00;99262.16;5017886;28;20040;-67
2024/03/08 03:02:57;;;;;;;4.27;3.00;;;;;;;-1.73;100.00;99271.88;5050393;28;20045;-67
2024/03/08 03:05:24;;;;;;;4.37;3.07;;;;;;;-1.80;100.00;99260.19;5017832;28;20056;-67
2024/03/08 03:07:51;;;;;;;4.60;3.30;;;;;;;-1.78;100.00;99260.91;5034417;28;20045;-67
2024/03/08 03:10:17;;;;;;;4.50;3.20;;;;;;;-1.81;100.00;99248.91;5034523;28;20057;-67
2024/03/08 03:12:45;;;;;;;5.60;3.23;;;;;;;-1.80;100.00;99247.16;5017814;28;20391;-67
2024/03/08 03:15:19;;;;;;;6.00;3.20;;;;;;;-1.69;100.00;99242.13;5001449;28;20052;-66
2024/03/08 03:17:50;;;;;;;6.43;3.23;;;;;;;-1.67;100.00;99229.88;5035071;28;20094;-66
2024/03/08 03:20:25;;;;;;;8.30;3.43;;;;;;;-1.64;100.00;99234.91;5018717;28;20049;-68
2024/03/08 03:22:51;;;;;;;9.43;3.77;;;;;;;-1.68;100.00;99233.41;5002292;28;20072;-68
2024/03/08 03:25:24;;;;;;;6.00;3.63;;;;;;;-1.60;100.00;99228.59;5050716;28;20049;-68
2024/03/08 03:27:56;;;;;;;6.67;3.73;;;;;;;-1.60;100.00;99227.75;5034471;28;20067;-68
2024/03/08 03:30:32;;;;;;;5.53;3.53;;;;;;;-1.57;100.00;99228.41;5017998;28;20060;-67
2024/03/08 03:33:06;;;;;;;3.53;2.80;;;;;;;-1.62;100.00;99230.44;5018388;28;20041;-66
2024/03/08 03:35:34;;;;;;;6.13;3.20;;;;;;;-1.74;100.00;99212.97;5035155;28;20053;-66
2024/03/08 03:38:19;;;;;;;8.03;3.83;;;;;;;-1.80;100.00;99221.13;5034146;28;20095;-65
2024/03/08 03:40:46;;;;;;;5.27;3.40;;;;;;;-1.86;100.00;99213.69;5053144;28;20119;-66
2024/03/08 03:43:11;;;;;;;5.30;3.33;;;;;;;-1.86;100.00;99216.31;5017137;28;20360;-66
2024/03/08 03:45:39;;;;;;;6.03;3.40;;;;;;;-1.86;100.00;99206.72;5000839;28;20045;-68
2024/03/08 03:48:06;;;;;;;4.60;3.00;;;;;;;-1.89;100.00;99199.09;5033826;28;20190;-70
2024/03/08 03:50:35;;;;;;;5.13;3.20;;;;;;;-1.94;100.00;99206.31;5017470;28;20143;-70
2024/03/08 03:53:04;;;;;;;6.03;3.00;;;;;;;-1.95;100.00;99207.25;5033726;28;20044;-69
2024/03/08 03:55:30;;;;;;;4.50;3.00;;;;;;;-1.99;100.00;99205.78;5017546;28;20102;-70
2024/03/08 03:57:56;;;;;;;4.47;3.37;;;;;;;-2.03;100.00;99200.84;5035581;28;20120;-70
2024/03/08 04:00:21;;;;;;;5.53;3.40;;;;;;;-2.01;100.00;99192.03;5034081;28;20049;-70
2024/03/08 04:02:47;;;;;;;6.97;3.77;;;;;;;-2.04;100.00;99196.56;5017349;28;20051;-68
2024/03/08 04:05:13;;;;;;;5.33;3.57;;;;;;;-1.99;100.00;99190.16;5017397;28;20037;-66
2024/03/08 04:07:39;;;;;;;7.30;4.00;;;;;;;-1.97;100.00;99188.28;5033457;28;20044;-67
2024/03/08 04:10:07;;;;;;;6.13;3.80;;;;;;;-1.94;100.00;99187.28;5033712;28;20198;-68
2024/03/08 04:12:35;;;;;;;7.07;3.67;;;;;;;-1.88;100.00;99190.34;5033662;28;20045;-70
2024/03/08 04:15:02;;;;;;;5.37;3.50;;;;;;;-1.91;100.00;99177.53;5050256;28;20048;-67
2024/03/08 04:17:37;;;;;;;5.47;3.70;;;;;;;-1.90;100.00;99184.41;5053902;28;20059;-67
2024/03/08 04:20:09;;;;;;;6.63;4.05;;;;;;;-1.85;100.00;99195.41;5036143;28;20113;-68
2024/03/08 04:22:39;;;;;;;5.57;3.60;;;;;;;-1.72;100.00;99200.66;5052930;28;20088;-67
2024/03/08 04:25:06;;;;;;;6.17;3.87;;;;;;;-1.65;100.00;99188.97;5038056;28;20048;-68
2024/03/08 04:27:35;;;;;;;6.37;3.50;;;;;;;-1.50;100.00;99185.44;5037746;28;20460;-67
2024/03/08 04:30:02;;;;;;;4.73;3.30;;;;;;;-1.39;100.00;99193.44;5054089;28;20611;-67
2024/03/08 04:32:32;;;;;;;5.50;3.70;;;;;;;-1.30;100.00;99198.06;5037621;28;20516;-66
2024/03/08 04:34:58;;;;;;;5.30;3.00;;;;;;;-1.23;100.00;99191.53;5037085;28;20471;-66
2024/03/08 04:37:24;;;;;;;6.50;3.43;;;;;;;-1.14;100.00;99193.59;5053591;28;20049;-66
2024/03/08 04:39:50;;;;;;;5.43;3.53;;;;;;;-1.07;100.00;99197.47;5037337;28;20049;-67
2024/03/08 04:42:17;;;;;;;4.53;3.07;;;;;;;-1.00;100.00;99193.53;5020496;28;20043;-66
2024/03/08 04:44:44;;;;;;;4.57;3.23;;;;;;;-0.93;100.00;99192.22;5037090;28;20055;-66
2024/03/08 04:47:10;;;;;;;4.20;3.03;;;;;;;-0.85;100.00;99192.56;5053388;28;20080;-66
2024/03/08 04:49:36;;;;;;;3.60;2.87;;;;;;;-0.77;100.00;99189.47;5053603;28;20083;-66
2024/03/08 04:52:03;;;;;;;3.83;3.10;;;;;;;-0.68;100.00;99187.13;5036907;28;20072;-66
2024/03/08 04:54:29;;;;;;;5.60;3.43;;;;;;;-0.59;100.00;99183.91;5036792;28;20706;-66
2024/03/08 04:56:55;;;;;;;4.50;3.03;;;;;;;-0.56;100.00;99181.09;5036598;28;20389;-66
2024/03/08 04:59:21;;;;;;;4.73;3.00;;;;;;;-0.52;100.00;99195.59;5020307;28;20041;-66
2024/03/08 05:01:47;;;;;;;5.10;3.30;;;;;;;-0.48;100.00;99197.06;5036738;28;20047;-66
2024/03/08 05:04:13;;;;;;;5.47;3.67;;;;;;;-0.45;100.00;99191.66;5036820;28;20123;-67
2024/03/08 05:06:39;;;;;;;3.90;3.17;;;;;;;-0.42;100.00;99188.88;5037062;28;20128;-67
2024/03/08 05:09:13;;;;;;;6.03;3.20;;;;;;;-0.34;100.00;99186.56;5020850;28;20255;-67
2024/03/08 05:11:48;;;;;;;4.87;2.77;;;;;;;-0.19;100.00;99188.19;5054450;28;20045;-67
2024/03/08 05:14:19;;;;;;;4.23;3.40;;;;;;;-0.24;100.00;99185.03;5052839;28;20060;-66
2024/03/08 05:16:48;;;;;;;4.37;3.07;;;;;;;-0.09;100.00;99188.38;5053269;28;20048;-66
2024/03/08 05:19:18;;;;;;;5.27;2.97;;;;;;;-0.03;100.00;99187.97;5053951;28;20037;-67
2024/03/08 05:21:44;;;;;;;3.93;2.73;;;;;;;0.04;100.00;99186.63;5052660;28;20076;-66
2024/03/08 05:24:10;;;;;;;4.73;2.97;;;;;;;0.10;100.00;99187.97;5052944;28;20048;-66
2024/03/08 05:26:37;;;;;;;3.63;3.00;;;;;;;0.15;100.00;99189.34;5035873;28;20470;-66
2024/03/08 05:29:03;;;;;;;3.70;2.70;;;;;;;0.20;100.00;99192.47;5036014;28;20118;-66
2024/03/08 05:31:31;;;;;;;3.67;2.83;;;;;;;0.27;100.00;99195.50;5035156;28;20049;-67
2024/03/08 05:33:57;;;;;;;5.03;3.07;;;;;;;0.19;100.00;99184.72;5052847;28;20048;-66
2024/03/08 05:36:23;;;;;;;6.80;3.50;;;;;;;0.25;100.00;99177.31;5052639;28;20052;-66
2024/03/08 05:38:50;;;;;;;4.07;3.27;;;;;;;0.32;100.00;99172.53;5035916;28;20033;-66
2024/03/08 05:41:17;;;;;;;4.33;3.30;;;;;;;0.34;100.00;99174.06;5035924;28;20072;-66
2024/03/08 05:43:43;;;;;;;3.90;3.00;;;;;;;0.37;100.00;99168.63;5036703;28;20045;-66
2024/03/08 05:46:11;;;;;;;6.03;3.43;;;;;;;0.39;100.00;99174.59;5052754;28;20079;-66
2024/03/08 05:48:37;;;;;;;4.70;3.23;;;;;;;0.41;100.00;99174.50;5035930;28;20036;-66
2024/03/08 05:51:03;;;;;;;6.57;3.80;;;;;;;0.44;100.00;99171.66;5035879;28;20053;-66
2024/03/08 05:53:32;;;;;;;6.37;4.33;;;;;;;0.45;100.00;99173.34;5018960;28;20056;-66
2024/03/08 05:55:58;;;;;;;4.93;3.50;;;;;;;0.47;100.00;99163.63;5051995;28;20049;-66
2024/03/08 05:58:25;;;;;;;6.70;3.93;;;;;;;0.46;100.00;99175.03;5036194;28;20055;-66
2024/03/08 06:00:50;;;;;;;5.33;3.23;;;;;;;0.42;100.00;99168.31;5019184;28;20045;-66
2024/03/08 06:03:16;;;;;;;5.20;3.30;;;;;;;0.48;100.00;99171.34;5018824;28;20139;-66
2024/03/08 06:05:42;;;;;;;5.20;3.40;;;;;;;0.49;100.00;99178.28;5035668;28;20107;-66
2024/03/08 06:08:07;;;;;;;5.07;3.60;;;;;;;0.47;100.00;99172.31;5018659;28;20356;-67
2024/03/08 06:10:33;;;;;;;6.97;4.33;;;;;;;0.44;100.00;99176.91;5019678;28;20037;-66
2024/03/08 06:13:01;;;;;;;7.70;4.10;;;;;;;0.41;100.00;99164.06;5019956;28;20087;-66
2024/03/08 06:15:27;;;;;;;6.23;4.00;;;;;;;0.44;100.00;99162.06;5035004;28;20049;-66
2024/03/08 06:17:53;;;;;;;8.97;5.07;;;;;;;0.42;100.00;99171.78;5018795;28;20099;-66
2024/03/08 06:20:18;;;;;;;8.10;4.50;;;;;;;0.40;100.00;99170.22;5018452;28;20060;-66
2024/03/08 06:22:44;;;;;;;9.37;4.27;;;;;;;0.38;100.00;99166.88;5002294;28;20102;-66
2024/03/08 06:25:15;;;;;;;6.40;4.13;;;;;;;0.43;100.00;99160.38;5051959;28;20084;-66
2024/03/08 06:27:42;;;;;;;7.43;4.63;;;;;;;0.51;100.00;99165.09;5051755;28;20085;-66
2024/03/08 06:30:09;;;;;;;5.80;4.07;;;;;;;0.64;100.00;99164.13;5034809;28;20052;-67
2024/03/08 06:32:37;;;;;;;4.60;3.40;;;;;;;0.74;100.00;99156.47;5034892;28;20131;-66
2024/03/08 06:35:07;;;;;;;5.87;3.53;;;;;;;0.88;100.00;99169.38;5051514;28;20036;-66
2024/03/08 06:37:33;;;;;;;4.57;3.27;;;;;;;0.92;100.00;99161.22;5018445;28;20040;-66
2024/03/08 06:40:00;;;;;;;6.13;3.30;;;;;;;1.05;100.00;99167.25;5050804;28;20186;-66
2024/03/08 06:42:28;;;;;;;5.93;3.33;;;;;;;1.16;100.00;99172.53;5017973;28;20491;-67
2024/03/08 06:44:55;;;;;;;5.43;3.53;;;;;;;1.26;100.00;99162.25;5051315;28;20041;-66
2024/03/08 06:47:25;;;;;;;6.83;3.80;;;;;;;1.32;100.00;99167.03;5002381;28;20059;-66
2024/03/08 06:49:52;;;;;;;4.67;3.53;;;;;;;1.39;100.00;99163.00;5019091;28;20052;-66
2024/03/08 06:52:18;;;;;;;4.83;3.37;;;;;;;1.50;100.00;99169.13;5017926;28;20063;-66
2024/03/08 06:54:44;;;;;;;4.73;3.37;;;;;;;1.61;100.00;99169.16;5018267;28;20036;-66
2024/03/08 06:57:10;;;;;;;5.47;3.17;;;;;;;1.70;100.00;99167.66;5034359;28;20044;-66
2024/03/08 06:59:36;;;;;;;4.57;3.10;;;;;;;1.79;100.00;99166.97;5034037;28;20045;-66
2024/03/08 07:02:03;;;;;;;6.13;3.30;;;;;;;1.87;100.00;99176.84;5034212;28;20387;-66
2024/03/08 07:04:31;;;;;;;6.97;3.83;;;;;;;1.82;100.00;99165.88;5002077;28;20361;-66
2024/03/08 07:06:57;;;;;;;3.80;3.03;;;;;;;1.92;100.00;99169.50;5034461;28;20041;-66
2024/03/08 07:09:24;;;;;;;3.90;2.93;;;;;;;1.95;100.00;99167.50;5034137;28;20388;-66
2024/03/08 07:12:00;;;;;;;4.37;3.17;;;;;;;1.97;100.00;99162.16;5032492;28;20119;-66
2024/03/08 07:14:25;;;;;;;4.97;3.40;;;;;;;2.01;100.00;99167.03;5044461;28;20047;-67
2024/03/08 07:16:51;;;;;;;5.33;3.30;;;;;;;2.08;100.00;99168.22;5015171;28;20048;-66
2024/03/08 07:19:17;;;;;;;6.10;3.70;;;;;;;2.15;100.00;99169.44;5050514;28;20049;-67
2024/03/08 07:21:44;;;;;;;5.00;3.70;;;;;;;2.23;100.00;99168.84;5017576;28;20040;-67
2024/03/08 07:27:04;;;;;;;5.33;4.17;;;;;;;2.28;100.00;99172.78;5041694;28;20591;-67
2024/03/08 07:29:31;;;;;;;5.77;3.90;;;;;;;2.28;100.00;99164.91;5054097;28;20044;-67
2024/03/08 07:34:31;;;;;;;6.97;4.60;;;;;;;2.31;100.00;99167.31;5052452;28;20044;-68
2024/03/08 07:36:59;;;;;;;7.90;4.13;;;;;;;2.31;100.00;99177.78;5050978;28;20043;-66
2024/03/08 07:39:25;;;;;;;8.03;4.00;;;;;;;2.27;100.00;99165.88;5043498;28;20036;-68
2024/03/08 07:41:52;;;;;;;5.77;3.30;;;;;;;2.36;100.00;99162.56;5039325;28;20094;-68
2024/03/08 07:44:21;;;;;;;5.00;3.23;;;;;;;2.52;100.00;99162.19;5033482;28;20380;-67
2024/03/08 07:46:47;;;;;;;6.00;3.20;;;;;;;2.59;100.00;99158.97;5050830;28;20443;-65
2024/03/08 07:49:13;;;;;;;5.53;3.57;;;;;;;2.67;100.00;99164.47;5027390;28;20075;-65
2024/03/08 07:51:39;;;;;;;4.13;3.30;;;;;;;2.75;100.00;99159.44;5050238;28;20398;-66
2024/03/08 07:54:05;;;;;;;5.23;3.27;;;;;;;2.83;100.00;99170.16;5047106;28;20052;-65
2024/03/08 07:56:31;;;;;;;4.80;3.57;;;;;;;2.91;100.00;99164.28;5054047;28;20051;-64
2024/03/08 07:58:56;;;;;;;7.30;4.20;;;;;;;2.92;100.00;99163.34;5037960;28;20037;-64
2024/03/08 08:01:22;;;;;;;5.03;3.67;;;;;;;2.97;100.00;99162.03;5056299;28;20075;-67
2024/03/08 08:03:48;;;;;;;5.13;3.53;;;;;;;3.02;100.00;99162.50;5025300;28;20722;-69
2024/03/08 08:06:17;;;;;;;5.40;3.33;;;;;;;3.19;100.00;99159.38;4995406;28;20049;-64
2024/03/08 08:08:43;;;;;;;4.27;3.20;;;;;;;3.27;100.00;99151.72;5024909;28;20075;-65
2024/03/08 08:11:14;;;;;;;4.90;3.73;;;;;;;3.55;100.00;99139.78;4992255;28;20037;-66
2024/03/08 08:13:44;;;;;;;6.53;3.53;;;;;;;3.79;100.00;99147.41;4992288;28;20126;-67
2024/03/08 08:16:13;;;;;;;5.57;3.50;;;;;;;3.83;100.00;99139.16;4994972;28;20038;-66
2024/03/08 08:18:46;;;;;;;5.60;4.33;;;;;;;3.99;99.76;99138.69;4993633;28;20300;-66
2024/03/08 08:21:11;;;;;;;6.53;3.90;;;;;;;4.21;97.53;99141.19;5012386;28;20425;-66
2024/03/08 08:23:40;;;;;;;5.87;3.73;;;;;;;4.35;95.26;99140.84;5012476;28;20141;-68
2024/03/08 08:26:07;;;;;;;5.43;3.47;;;;;;;4.51;95.11;99141.19;4997266;28;20042;-67
2024/03/08 08:28:35;;;;;;;6.10;3.80;;;;;;;4.59;94.08;99142.22;4979830;28;20054;-67
2024/03/08 08:31:01;;;;;;;5.13;3.77;;;;;;;4.66;92.04;99147.75;4995202;28;20061;-67
2024/03/08 08:33:27;;;;;;;5.70;3.63;;;;;;;4.69;91.00;99143.06;4993241;28;20156;-66
2024/03/08 08:35:53;;;;;;;4.73;3.70;;;;;;;4.68;90.90;99149.28;4976352;28;20050;-66
2024/03/08 08:38:23;;;;;;;6.70;4.20;;;;;;;4.81;91.07;99144.63;4978405;28;20135;-66
2024/03/08 08:40:50;;;;;;;6.90;4.20;;;;;;;4.83;90.53;99147.13;5010950;28;20046;-67
2024/03/08 08:43:24;;;;;;;4.97;3.60;;;;;;;4.95;89.62;99149.50;4992310;28;20080;-67
2024/03/08 08:45:54;;;;;;;5.70;3.43;;;;;;;4.98;88.38;99153.69;4975308;28;20054;-67
2024/03/08 08:48:30;;;;;;;7.50;4.00;;;;;;;4.94;88.34;99144.38;4973415;28;20047;-67
2024/03/08 08:50:56;;;;;;;5.50;4.00;;;;;;;4.97;87.83;99149.38;4989501;28;20129;-67
2024/03/08 08:53:22;;;;;;;5.47;4.00;;;;;;;5.04;87.50;99150.53;4973414;28;20069;-70
2024/03/08 08:55:48;;;;;;;6.50;4.00;;;;;;;5.28;86.70;99137.81;4973716;28;20039;-66
2024/03/08 08:58:34;;;;;;;5.67;4.00;;;;;;;5.54;84.12;99138.09;4956969;28;20086;-67
2024/03/08 09:01:01;;;;;;;6.00;4.20;;;;;;;5.65;82.52;99138.78;4975550;28;20074;-67
2024/03/08 09:03:29;;;;;;;5.27;4.00;;;;;;;5.70;80.76;99139.22;4930513;28;20397;-67
2024/03/08 09:05:55;;;;;;;5.57;4.10;;;;;;;5.66;80.52;99144.91;4979700;28;20057;-66
2024/03/08 09:08:21;;;;;;;5.37;4.10;;;;;;;5.63;80.92;99138.09;4963854;28;20149;-66
2024/03/08 09:10:48;;;;;;;4.33;3.57;;;;;;;5.64;80.93;99139.78;4979514;28;20053;-67
2024/03/08 09:13:16;;;;;;;5.70;3.90;;;;;;;5.65;80.59;99125.63;4995271;28;20072;-67
2024/03/08 09:15:49;;;;;;;8.60;4.70;;;;;;;5.80;79.95;99134.75;4980618;28;20045;-66
2024/03/08 09:18:17;;;;;;;6.40;4.80;;;;;;;5.81;79.03;99140.88;4979455;28;20103;-66
2024/03/08 09:20:44;;;;;;;5.80;4.20;;;;;;;5.97;78.58;99131.44;4962857;28;20061;-68
2024/03/08 09:23:10;;;;;;;6.73;4.50;;;;;;;6.06;77.95;99135.84;4979278;28;20049;-71
2024/03/08 09:25:37;;;;;;;5.43;4.30;;;;;;;6.26;76.41;99121.66;4975848;28;20047;-72
2024/03/08 09:28:05;;;;;;;5.60;3.97;;;;;;;6.45;74.80;99126.88;4975788;28;20054;-72
2024/03/08 09:30:31;;;;;;;6.00;4.63;;;;;;;6.51;74.22;99128.94;4960621;28;20520;-67
2024/03/08 09:32:57;;;;;;;6.75;4.90;;;;;;;6.50;73.40;99126.44;5010517;28;20091;-68
2024/03/08 09:35:23;;;;;;;7.30;5.25;;;;;;;6.51;73.26;99126.28;5015250;28;20484;-75
2024/03/08 09:37:51;;;;;;;6.37;4.70;;;;;;;6.66;73.66;99116.91;5014509;28;20044;-72
2024/03/08 09:40:19;;;;;;;7.67;3.90;;;;;;;7.02;72.11;99124.91;5014414;28;20045;-76
2024/03/08 09:42:46;;;;;;;7.05;4.85;;;;;;;7.15;70.29;99122.78;5014592;28;20045;-74
2024/03/08 09:45:18;;;;;;;7.75;4.60;;;;;;;7.16;70.13;99119.97;5015746;28;20495;-74
2024/03/08 09:47:46;;;;;;;5.20;3.60;;;;;;;7.21;69.47;99116.88;5031718;28;20438;-72
2024/03/08 09:50:18;;;;;;;5.57;3.95;;;;;;;7.11;68.88;99119.59;5016315;28;20059;-72
2024/03/08 09:52:48;;;;;;;5.18;4.13;;;;;;;7.02;69.27;99122.28;5015702;28;20049;-73
2024/03/08 09:55:22;;;;;;;6.03;4.20;;;;;;;6.93;70.06;99117.91;5016253;28;20053;-74
2024/03/08 10:01:04;;;;;;;7.70;4.85;;;;;;;6.79;70.99;99106.03;4956817;28;20145;-78
2024/03/08 10:03:40;;;;;;;7.45;4.90;;;;;;;6.82;73.47;99117.13;4960961;28;20142;-77
2024/03/08 10:06:11;;;;;;;7.00;5.18;;;;;;;7.09;73.54;99103.06;4936251;29;20121;-82
2024/03/08 10:08:40;;;;;;;6.30;4.65;;;;;;;7.88;72.60;99111.88;4892950;29;20047;-81
2024/03/08 10:11:08;;;;;;;6.80;4.97;;;;;;;8.57;67.18;99113.53;4891323;29;20533;-77
2024/03/08 10:13:36;;;;;;;5.93;4.63;;;;;;;8.66;64.16;99118.84;4919403;29;20052;-76
2024/03/08 10:16:02;;;;;;;7.15;4.45;;;;;;;8.69;62.76;99107.94;4949384;28;20061;-78
2024/03/08 10:18:40;;;;;;;7.55;5.30;;;;;;;8.95;61.99;99108.72;4914328;28;20050;-80
2024/03/08 10:21:29;;;;;;;6.70;4.57;;;;;;;8.84;61.04;99109.81;4963063;28;20060;-74
2024/03/08 10:24:04;;;;;;;7.47;4.43;;;;;;;8.83;61.45;99107.31;4944829;28;20051;-73
2024/03/08 10:26:43;;;;;;;7.35;4.22;;;;;;;8.70;60.63;99110.44;4926188;29;20064;-75
2024/03/08 10:29:15;;;;;;;7.13;4.75;;;;;;;8.36;60.74;99106.94;4884237;29;20052;-76
2024/03/08 10:31:45;;;;;;;7.93;5.00;;;;;;;8.26;62.39;99099.13;4857604;29;20061;-78
2024/03/08 10:34:13;;;;;;;5.55;4.13;;;;;;;8.20;62.04;99091.78;4891918;29;20056;-77
2024/03/08 10:36:41;;;;;;;6.00;4.55;;;;;;;8.28;62.47;99096.31;4871316;29;20061;-80
2024/03/08 10:39:25;;;;;;;5.18;3.65;;;;;;;8.37;61.93;99098.00;4900557;29;20057;-79
2024/03/08 10:41:57;;;;;;;4.75;3.75;;;;;;;8.50;62.01;99091.31;4876410;29;20064;-78
2024/03/08 10:44:44;;;;;;;6.20;4.05;;;;;;;8.77;61.52;99098.22;4891844;29;20064;-75
2024/03/08 10:47:13;;;;;;;5.10;4.07;;;;;;;8.81;60.90;99098.72;4876882;29;20064;-75
2024/03/08 10:49:55;;;;;;;8.63;5.95;;;;;;;8.36;60.11;99099.00;4875254;29;20072;-74
2024/03/08 10:52:22;;;;;;;7.60;5.25;;;;;;;8.21;61.78;99095.25;4894178;29;20056;-77
2024/03/08 10:54:56;;;;;;;7.18;4.57;;;;;;;8.14;62.09;99089.75;4896126;29;20045;-72
2024/03/08 10:57:23;;;;;;;6.95;5.32;;;;;;;8.21;62.84;99097.91;4885683;29;20056;-68
2024/03/08 10:59:51;;;;;;;7.13;4.72;;;;;;;8.31;63.31;99096.84;4894985;29;20154;-69
2024/03/08 11:02:19;;;;;;;6.82;4.50;;;;;;;8.33;63.05;99100.13;4900741;29;20253;-70
2024/03/08 11:04:49;;;;;;;6.53;4.88;;;;;;;8.36;62.42;99101.66;4913525;29;20091;-70
2024/03/08 11:07:19;;;;;;;;;;;;;;;8.40;62.39;99098.53;4882645;29;20051;-69
2024/03/08 11:09:50;;;;;;;6.35;4.32;;;;;;;8.23;63.17;99096.78;4912949;29;19919;-68
2024/03/08 11:12:51;;;;;;;4.75;3.83;;;;;;;8.27;63.75;99105.25;4911503;28;20094;-69
2024/03/08 11:15:18;;;;;;;6.07;4.63;;;;;;;8.33;63.03;99099.34;4946556;28;20053;-72
2024/03/08 11:17:56;;;;;;;6.68;4.28;;;;;;;8.47;63.05;99094.25;4959453;28;20066;-76
2024/03/08 11:20:26;;;;;;;5.03;4.03;;;;;;;8.39;62.33;99090.75;4970589;28;20104;-71
2024/03/08 11:22:55;;;;;;;4.30;3.80;;;;;;;8.26;62.86;99090.34;4949560;28;20047;-71
2024/03/08 11:25:39;;;;;;;5.00;3.60;;;;;;;8.14;63.92;99104.78;4963409;28;20058;-71
2024/03/08 11:28:33;;;;;;;5.28;4.05;;;;;;;7.98;65.21;99091.47;4996611;28;20054;-70
2024/03/08 11:31:00;;;;;;;5.53;4.40;;;;;;;7.83;65.42;99103.56;5002582;28;20046;-71
2024/03/08 11:33:30;;;;;;;7.53;4.72;;;;;;;7.73;67.58;99098.41;5007569;28;20098;-70
2024/03/08 11:36:16;;;;;;;5.75;4.38;;;;;;;7.58;67.53;99091.16;4961372;28;20472;-73
2024/03/08 11:38:51;;;;;;;9.57;4.88;;;;;;;7.37;68.00;99087.97;5012301;28;20160;-71
2024/03/08 11:41:19;;;;;;;7.07;4.45;;;;;;;7.24;69.42;99083.09;4978081;28;20128;-70
2024/03/08 11:44:11;;;;;;;5.18;3.97;;;;;;;7.21;70.71;99077.28;5007978;28;20041;-71
2024/03/08 11:46:39;;;;;;;8.10;4.70;;;;;;;7.14;71.26;99084.13;4969399;28;20050;-70